This is the latest recevied weather packets stored in our database for station/object W5GMO. If no packets are shown the sender has not sent any weather packets the latest 1 day(s).
| Time | Temp. | Humidity | Pressure | Rain* | Wind** | Luminosity | Snow |
|---|---|---|---|---|---|---|---|
| 1778077121 | 16.67° C | 88% | 1010.5 hPa | 3.05 mm | - | 46 W/m² | - |
| 1778076213 | 16.67° C | 87% | 1010.6 hPa | 4.32 mm | - | 41 W/m² | - |
| 1778075910 | 16.67° C | 87% | 1010.4 hPa | 4.83 mm | - | 78 W/m² | - |
| 1778075303 | 16.67° C | 86% | 1010.6 hPa | 4.83 mm | - | 73 W/m² | - |
| 1778074697 | 17.22° C | 85% | 1010.7 hPa | 3.05 mm | - | 35 W/m² | - |
| 1778072878 | 17.78° C | 78% | 1010.8 hPa | 0 mm | - | 42 W/m² | - |
| 1778072273 | 17.78° C | 79% | 1010.3 hPa | 1.78 mm | - | 53 W/m² | - |
| 1778071669 | 17.78° C | 78% | 1010.1 hPa | 0 mm | - | 51 W/m² | - |
| 1778071366 | 17.78° C | 79% | 1010.3 hPa | 0 mm | - | 49 W/m² | - |
| 1778070762 | 18.33° C | 77% | 1010.2 hPa | 0 mm | - | 76 W/m² | - |
| 1778069550 | 18.33° C | 73% | 1010.7 hPa | 0 mm | - | 36 W/m² | - |
| 1778068643 | 18.89° C | 72% | 1010.7 hPa | 0 mm | - | 30 W/m² | - |
| 1778068341 | 18.89° C | 72% | 1010.7 hPa | 0 mm | - | 42 W/m² | - |
| 1778067736 | 18.89° C | 72% | 1010.6 hPa | 0 mm | - | 34 W/m² | - |
| 1778065315 | 18.89° C | 68% | 1010.3 hPa | 0 mm | - | 51 W/m² | - |
| 1778064708 | 18.89° C | 68% | 1010 hPa | 0 mm | - | 53 W/m² | - |
| 1778062286 | 19.44° C | 67% | 1010 hPa | 0 mm | - | 3 W/m² | - |
| 1778061985 | 19.44° C | 67% | 1009.6 hPa | 0 mm | - | 2 W/m² | - |
| 1778061381 | 19.44° C | 67% | 1009.6 hPa | 0 mm | - | 0 W/m² | - |
| 1778061077 | 19.44° C | 67% | 1009.8 hPa | 0 mm | - | 0 W/m² | - |
| 1778059262 | 19.44° C | 66% | 1009.8 hPa | 0 mm | - | 0 W/m² | - |
| 1778058355 | 19.44° C | 66% | 1009.9 hPa | 0 mm | - | 0 W/m² | - |
| 1778058051 | 19.44° C | 65% | 1010 hPa | 0 mm | - | 0 W/m² | - |
| 1778057748 | 20° C | 65% | 1009.9 hPa | 0 mm | - | 0 W/m² | - |
| 1778056535 | 20° C | 64% | 1010.1 hPa | 0 mm | - | 0 W/m² | - |
* Rain latest hour (hover to see other rain measurements)
** Current wind speed in m/s (hover to see current wind gust speed)